Time;durP1;ratioP1;P1;durP2;ratioP2;P2;SDS_P1;SDS_P2;PMS_P1;PMS_P2;Temp;Humidity;BMP_temperature;BMP_pressure;BME280_temperature;BME280_humidity;BME280_pressure;Samples;Min_cycle;Max_cycle;Signal;HPM_P1;HPM_P2
2022/06/03 00:00:16;;;;;;;12.75;9.50;;;564.10;2432.00;;;;;;5017890;28;20457;-76
2022/06/03 00:03:06;;;;;;;13.00;9.77;;;564.00;2432.00;;;;;;5023983;28;20535;-76
2022/06/03 00:05:48;;;;;;;13.15;10.40;;;564.10;2432.00;;;;;;5023919;28;20133;-75
2022/06/03 00:08:41;;;;;;;14.00;8.82;;;564.00;2432.00;;;;;;5017780;28;20049;-76
2022/06/03 00:11:09;;;;;;;14.43;10.65;;;563.90;2432.00;;;;;;5005382;28;20372;-76
2022/06/03 00:13:56;;;;;;;17.35;9.70;;;563.90;2432.00;;;;;;5024120;28;20037;-76
2022/06/03 00:16:28;;;;;;;15.73;9.52;;;563.80;2432.00;;;;;;5044971;28;20031;-76
2022/06/03 00:19:11;;;;;;;14.45;9.70;;;563.80;2432.00;;;;;;5084784;28;20496;-75
2022/06/03 00:22:15;;;;;;;13.25;10.32;;;563.80;2432.00;;;;;;5086259;28;20033;-76
2022/06/03 00:25:07;;;;;;;13.40;10.05;;;563.80;2432.00;;;;;;5046845;28;20104;-76
2022/06/03 00:28:05;;;;;;;14.02;9.27;;;563.70;2432.00;;;;;;5052858;28;20032;-75
2022/06/03 00:30:40;;;;;;;15.18;11.20;;;563.70;2432.00;;;;;;4971867;28;20093;-75
2022/06/03 00:33:17;;;;;;;13.98;10.00;;;563.60;2432.00;;;;;;4971353;28;20428;-75
2022/06/03 00:36:04;;;;;;;10.63;9.45;;;563.50;2432.00;;;;;;4974034;28;20035;-76
2022/06/03 00:38:56;;;;;;;12.32;8.85;;;563.60;2432.00;;;;;;4971973;28;20022;-76
2022/06/03 00:41:54;;;;;;;12.85;9.52;;;563.60;2432.00;;;;;;4973402;28;20042;-76
2022/06/03 00:44:40;;;;;;;11.90;9.23;;;563.60;2432.00;;;;;;4973880;28;20362;-76
2022/06/03 00:47:23;;;;;;;;;;;563.70;2432.00;;;;;;4969061;28;20082;-75
2022/06/03 00:49:48;;;;;;;11.70;8.45;;;563.80;2432.00;;;;;;4973907;28;19914;-75
2022/06/03 00:52:44;;;;;;;10.80;8.10;;;563.80;2432.00;;;;;;4974425;28;20493;-75
2022/06/03 00:55:19;;;;;;;9.10;6.90;;;563.80;2432.00;;;;;;4974296;28;20110;-74
2022/06/03 00:57:56;;;;;;;10.95;7.97;;;563.80;2432.00;;;;;;4973940;28;20030;-74
2022/06/03 01:00:33;;;;;;;9.82;7.60;;;563.90;2432.00;;;;;;4980884;28;20042;-75
2022/06/03 01:03:08;;;;;;;11.23;7.45;;;563.80;2432.00;;;;;;5013505;28;20041;-76
2022/06/03 01:05:45;;;;;;;9.77;7.72;;;563.80;2432.00;;;;;;5032657;28;20033;-75
2022/06/03 01:08:38;;;;;;;9.27;7.57;;;563.80;2432.00;;;;;;5084795;28;20111;-75
2022/06/03 01:11:41;;;;;;;8.75;6.90;;;563.80;2432.00;;;;;;5094996;28;20023;-75
2022/06/03 01:14:32;;;;;;;12.73;7.63;;;563.80;2432.00;;;;;;5095069;28;20390;-75
2022/06/03 01:17:24;;;;;;;10.63;7.53;;;563.70;2432.00;;;;;;5095085;28;20028;-76
2022/06/03 01:19:50;;;;;;;9.10;7.25;;;563.70;2432.00;;;;;;5093650;28;20028;-75
2022/06/03 01:22:41;;;;;;;10.88;8.23;;;563.70;2432.00;;;;;;5094556;28;20032;-75
2022/06/03 01:25:06;;;;;;;12.25;8.15;;;563.80;2432.00;;;;;;5093553;28;20031;-75
2022/06/03 01:27:38;;;;;;;9.40;7.72;;;563.80;2432.00;;;;;;5093239;28;20028;-76
2022/06/03 01:30:39;;;;;;;14.23;8.60;;;563.80;2432.00;;;;;;5094265;28;20051;-76
2022/06/03 01:33:23;;;;;;;10.50;8.43;;;563.80;2432.00;;;;;;5087006;28;20107;-76
2022/06/03 01:36:12;;;;;;;15.32;8.00;;;563.80;2432.00;;;;;;5094700;28;20081;-76
2022/06/03 01:38:50;;;;;;;12.95;7.57;;;563.80;2432.00;;;;;;5093244;28;20093;-76
2022/06/03 01:41:28;;;;;;;9.27;7.60;;;563.80;2432.00;;;;;;5094214;28;20035;-75
2022/06/03 01:43:59;;;;;;;12.55;8.20;;;563.70;2432.00;;;;;;5107475;28;20516;-76
2022/06/03 01:46:28;;;;;;;10.23;7.80;;;563.60;2432.00;;;;;;5093047;28;20019;-75
2022/06/03 01:48:57;;;;;;;10.07;7.97;;;563.60;2432.00;;;;;;5092853;28;20035;-76
2022/06/03 01:52:16;;;;;;;14.55;8.05;;;563.60;2432.00;;;;;;5093078;28;20012;-75
2022/06/03 01:54:47;;;;;;;9.25;7.90;;;563.50;2432.00;;;;;;5051902;28;20033;-75
2022/06/03 01:57:34;;;;;;;9.38;7.95;;;563.40;2432.00;;;;;;5051629;28;20040;-76
2022/06/03 02:00:19;;;;;;;11.82;8.32;;;563.40;2432.00;;;;;;5051469;28;20072;-75
2022/06/03 02:02:44;;;;;;;13.75;8.27;;;563.30;2432.00;;;;;;5051623;28;20048;-76
2022/06/03 02:05:53;;;;;;;10.20;7.78;;;563.20;2432.00;;;;;;5051676;28;20518;-75
2022/06/03 02:08:37;;;;;;;12.80;8.68;;;563.20;2432.00;;;;;;4991865;28;20127;-75
2022/06/03 02:11:32;;;;;;;15.85;8.65;;;538.50;2406.40;;;;;;4975648;28;20078;-76
2022/06/03 02:14:21;;;;;;;13.35;7.97;;;538.50;2406.40;;;;;;4915358;29;20530;-75
2022/06/03 02:17:12;;;;;;;10.88;7.70;;;563.20;2432.00;;;;;;4915209;29;20526;-76
2022/06/03 02:20:17;;;;;;;14.13;8.18;;;563.20;2432.00;;;;;;4915275;29;20059;-76
2022/06/03 02:22:51;;;;;;;11.00;7.82;;;563.20;2432.00;;;;;;4914909;29;20047;-76
2022/06/03 02:25:41;;;;;;;13.55;8.05;;;563.20;2432.00;;;;;;4914306;29;20488;-75
2022/06/03 02:28:44;;;;;;;11.30;7.93;;;538.50;2406.40;;;;;;4924637;29;20126;-75
2022/06/03 02:31:44;;;;;;;10.30;7.25;;;563.20;2432.00;;;;;;4953151;29;20047;-75
2022/06/03 02:34:28;;;;;;;9.38;7.35;;;563.30;2432.00;;;;;;4942536;29;20023;-75
2022/06/03 02:37:31;;;;;;;9.07;6.93;;;563.30;2432.00;;;;;;4952789;29;20027;-76
2022/06/03 02:40:26;;;;;;;12.35;6.70;;;563.30;2432.00;;;;;;4952812;29;20043;-76
2022/06/03 02:43:19;;;;;;;14.20;7.53;;;563.40;2432.00;;;;;;4952868;29;20039;-75
2022/06/03 02:46:18;;;;;;;11.27;6.78;;;563.20;2432.00;;;;;;4996650;28;20108;-76
2022/06/03 02:48:49;;;;;;;10.82;6.70;;;563.20;2432.00;;;;;;5011053;28;20034;-76
2022/06/03 02:51:49;;;;;;;9.75;6.55;;;563.20;2432.00;;;;;;5060842;28;20043;-75
2022/06/03 02:54:31;;;;;;;15.07;7.40;;;538.50;2406.40;;;;;;5093052;28;20047;-76
2022/06/03 02:57:36;;;;;;;11.85;7.28;;;538.40;2406.40;;;;;;5091580;28;20071;-76
2022/06/03 03:00:20;;;;;;;9.90;6.22;;;538.40;2406.40;;;;;;5033729;28;20098;-75
2022/06/03 03:03:09;;;;;;;11.73;7.13;;;538.50;2406.40;;;;;;5050682;28;20079;-75
2022/06/03 03:05:45;;;;;;;13.57;7.05;;;538.50;2406.40;;;;;;5050489;28;20120;-75
2022/06/03 03:08:31;;;;;;;9.43;6.68;;;538.50;2406.40;;;;;;5033545;28;20449;-75
2022/06/03 03:11:09;;;;;;;;;;;538.50;2406.40;;;;;;5050733;28;20434;-75
2022/06/03 03:13:34;;;;;;;8.52;6.93;;;538.50;2406.40;;;;;;5050449;28;19938;-75
2022/06/03 03:16:44;;;;;;;9.88;6.93;;;538.40;2406.40;;;;;;5033544;28;20123;-75
2022/06/03 03:19:18;;;;;;;12.35;7.40;;;538.30;2406.40;;;;;;5010753;28;20555;-76
2022/06/03 03:21:55;;;;;;;9.00;6.82;;;538.50;2406.40;;;;;;5050369;28;20063;-76
2022/06/03 03:24:52;;;;;;;12.52;7.32;;;538.50;2406.40;;;;;;5033377;28;20111;-75
2022/06/03 03:27:46;;;;;;;13.80;7.78;;;538.50;2406.40;;;;;;5033311;28;20056;-76
2022/06/03 03:30:29;;;;;;;10.90;7.38;;;538.50;2406.40;;;;;;5049640;28;20047;-76
2022/06/03 03:33:00;;;;;;;12.25;6.78;;;538.50;2406.40;;;;;;5049955;28;20431;-75
2022/06/03 03:35:40;;;;;;;13.50;7.10;;;538.50;2406.40;;;;;;5032684;28;20025;-75
2022/06/03 03:38:23;;;;;;;15.15;6.88;;;538.50;2406.40;;;;;;5092350;28;20023;-75
2022/06/03 03:41:00;;;;;;;12.30;6.93;;;538.40;2406.40;;;;;;5092040;28;20027;-75
2022/06/03 03:43:44;;;;;;;12.07;7.22;;;538.50;2406.40;;;;;;5092116;28;20036;-76
2022/06/03 03:46:09;;;;;;;8.60;7.07;;;538.50;2406.40;;;;;;5092162;28;20498;-75
2022/06/03 03:49:05;;;;;;;11.93;6.93;;;538.50;2406.40;;;;;;5091949;28;20055;-75
2022/06/03 03:51:56;;;;;;;11.13;6.40;;;538.50;2406.40;;;;;;5091043;28;20393;-75
2022/06/03 03:54:25;;;;;;;9.57;6.60;;;538.50;2406.40;;;;;;5092179;28;20028;-76
2022/06/03 03:57:03;;;;;;;8.50;7.13;;;538.50;2406.40;;;;;;5092002;28;20038;-75
2022/06/03 03:59:39;;;;;;;12.02;6.93;;;563.20;2432.00;;;;;;5092172;28;20028;-75
2022/06/03 04:02:05;;;;;;;;;;;563.20;2432.00;;;;;;5092733;28;20064;-76
2022/06/03 04:05:18;;;;;;;12.43;7.00;;;538.50;2406.40;;;;;;5105634;28;20006;-76
2022/06/03 04:07:47;;;;;;;9.32;6.85;;;538.50;2406.40;;;;;;5091873;28;20020;-75
2022/06/03 04:10:50;;;;;;;19.67;7.72;;;538.50;2406.40;;;;;;5092065;28;20077;-76
2022/06/03 04:14:00;;;;;;;13.00;7.03;;;563.20;2432.00;;;;;;5079292;28;20048;-75
2022/06/03 04:16:44;;;;;;;25.23;6.82;;;563.20;2432.00;;;;;;5049747;28;20032;-76
2022/06/03 04:19:42;;;;;;;7.63;6.78;;;563.30;2432.00;;;;;;5032425;28;20154;-75
2022/06/03 04:22:17;;;;;;;12.82;6.93;;;563.30;2432.00;;;;;;5049315;28;20526;-75
2022/06/03 04:25:10;;;;;;;9.52;6.75;;;563.30;2432.00;;;;;;5049543;28;20021;-76
2022/06/03 04:27:50;;;;;;;8.48;6.97;;;563.40;2432.00;;;;;;5032682;28;20029;-76
2022/06/03 04:30:46;;;;;;;8.32;6.05;;;563.40;2432.00;;;;;;5015599;28;20527;-76
2022/06/03 04:33:42;;;;;;;11.82;6.32;;;563.40;2432.00;;;;;;5029067;28;20547;-76
2022/06/03 04:36:30;;;;;;;7.77;5.70;;;563.50;2432.00;;;;;;5029423;28;20428;-74
2022/06/03 04:39:14;;;;;;;14.20;6.18;;;563.60;2432.00;;;;;;5029434;28;20294;-74
2022/06/03 04:42:14;;;;;;;27.58;6.65;;;563.60;2432.00;;;;;;5012606;28;20031;-75
2022/06/03 04:45:07;;;;;;;12.85;5.72;;;563.60;2432.00;;;;;;5012833;28;20029;-75
2022/06/03 04:47:54;;;;;;;10.00;5.75;;;563.60;2432.00;;;;;;5030538;28;20500;-75
2022/06/03 04:50:49;;;;;;;7.90;5.80;;;563.70;2432.00;;;;;;5016252;28;20056;-76
2022/06/03 04:53:46;;;;;;;8.32;5.40;;;563.70;2432.00;;;;;;5053630;28;20032;-75
2022/06/03 04:56:30;;;;;;;12.20;5.55;;;563.70;2432.00;;;;;;5050052;28;20124;-76
2022/06/03 04:59:14;;;;;;;7.72;5.85;;;563.70;2432.00;;;;;;5045247;28;20058;-74
2022/06/03 05:02:17;;;;;;;19.92;7.18;;;563.80;2432.00;;;;;;5043959;28;20553;-77
2022/06/03 05:05:01;;;;;;;8.63;5.75;;;563.90;2432.00;;;;;;5045942;28;20540;-76
2022/06/03 05:08:02;;;;;;;11.50;6.30;;;563.80;2432.00;;;;;;5067402;28;20028;-77
2022/06/03 05:11:01;;;;;;;11.82;4.95;;;564.10;2432.00;;;;;;4996139;28;20022;-78
2022/06/03 05:13:48;;;;;;;9.32;5.82;;;564.10;2432.00;;;;;;5012788;28;20116;-75
2022/06/03 05:16:34;;;;;;;6.97;5.43;;;588.90;2432.00;;;;;;5012953;28;20030;-75
2022/06/03 05:19:00;;;;;;;;;;;589.00;2432.00;;;;;;4996388;28;20042;-77
2022/06/03 05:21:56;;;;;;;6.40;5.13;;;589.00;2432.00;;;;;;5012805;28;19916;-75
2022/06/03 05:24:56;;;;;;;6.83;5.07;;;589.10;2432.00;;;;;;5005084;28;20045;-73
2022/06/03 05:27:31;;;;;;;8.70;4.80;;;589.20;2432.00;;;;;;5012088;28;20109;-74
2022/06/03 05:30:03;;;;;;;9.75;4.57;;;589.40;2432.00;;;;;;5017664;28;20050;-73
2022/06/03 05:32:29;;;;;;;12.63;5.90;;;589.40;2432.00;;;;;;5022475;28;20042;-73
2022/06/03 05:35:22;;;;;;;7.95;5.60;;;589.40;2432.00;;;;;;5021305;28;20498;-75
2022/06/03 05:38:06;;;;;;;10.98;5.00;;;589.40;2432.00;;;;;;5015740;28;20369;-74
2022/06/03 05:40:34;;;;;;;17.02;5.30;;;589.40;2432.00;;;;;;5027440;28;20026;-73
2022/06/03 05:43:47;;;;;;;6.57;4.70;;;589.50;2432.00;;;;;;5028510;28;20043;-77
2022/06/03 05:46:27;;;;;;;6.88;4.82;;;589.50;2432.00;;;;;;5040560;28;20017;-77
2022/06/03 05:49:11;;;;;;;9.20;5.07;;;589.50;2432.00;;;;;;5053834;28;20016;-77
2022/06/03 05:51:56;;;;;;;16.10;6.05;;;589.50;2432.00;;;;;;5052628;28;20029;-77
2022/06/03 05:54:47;;;;;;;8.85;5.30;;;589.50;2432.00;;;;;;5039048;28;20023;-76
2022/06/03 05:57:38;;;;;;;11.45;4.88;;;589.50;2432.00;;;;;;5054242;28;20074;-76
2022/06/03 06:00:22;;;;;;;11.55;5.63;;;589.60;2432.00;;;;;;5051496;28;20033;-74
2022/06/03 06:03:11;;;;;;;7.32;5.72;;;589.60;2432.00;;;;;;5053365;28;20043;-75
2022/06/03 06:06:06;;;;;;;8.80;5.50;;;589.60;2432.00;;;;;;5053563;28;20021;-76
2022/06/03 06:08:55;;;;;;;11.10;5.35;;;589.70;2432.00;;;;;;5053809;28;20029;-77
2022/06/03 06:11:33;;;;;;;9.60;6.32;;;589.70;2432.00;;;;;;5052644;28;20028;-76
2022/06/03 06:14:04;;;;;;;9.45;6.53;;;614.40;2432.00;;;;;;5053359;28;20118;-77
2022/06/03 06:16:40;;;;;;;8.75;5.85;;;614.40;2432.00;;;;;;5051943;28;20100;-77
2022/06/03 06:19:35;;;;;;;11.52;6.03;;;614.60;2432.00;;;;;;5042000;28;20483;-76
2022/06/03 06:22:02;;;;;;;8.45;5.40;;;614.60;2432.00;;;;;;5042220;28;20437;-76
2022/06/03 06:24:49;;;;;;;10.88;5.45;;;614.40;2432.00;;;;;;5044094;28;20120;-76
2022/06/03 06:27:57;;;;;;;7.20;5.28;;;614.70;2432.00;;;;;;5044040;28;20032;-76
2022/06/03 06:31:00;;;;;;;12.85;6.95;;;614.80;2432.00;;;;;;5077270;28;20098;-76
2022/06/03 06:34:03;;;;;;;10.18;5.22;;;614.80;2432.00;;;;;;5080034;28;20040;-74
2022/06/03 06:36:54;;;;;;;14.10;5.00;;;615.00;2432.00;;;;;;5081915;28;20028;-74
2022/06/03 06:39:38;;;;;;;10.40;5.10;;;615.10;2432.00;;;;;;5092079;28;20479;-76
2022/06/03 06:42:16;;;;;;;10.30;5.38;;;615.20;2380.80;;;;;;5093323;28;20370;-73
2022/06/03 06:45:12;;;;;;;12.23;5.72;;;640.00;2380.80;;;;;;5091965;28;20485;-76
2022/06/03 06:48:00;;;;;;;9.02;5.07;;;640.20;2355.20;;;;;;5083540;28;20024;-78
2022/06/03 06:50:38;;;;;;;11.60;4.90;;;640.40;2278.40;;;;;;5080977;28;20111;-74
2022/06/03 06:53:25;;;;;;;13.07;5.05;;;640.50;2227.20;;;;;;5078030;28;20051;-78
2022/06/03 06:56:16;;;;;;;8.25;5.03;;;640.70;2329.60;;;;;;5090309;28;20121;-77
2022/06/03 06:58:52;;;;;;;9.63;4.40;;;640.80;2304.00;;;;;;5091687;28;20045;-77
2022/06/03 07:01:26;;;;;;;12.82;4.65;;;640.90;2227.20;;;;;;5092709;28;20022;-78
2022/06/03 07:04:00;;;;;;;7.35;3.83;;;665.70;2201.60;;;;;;5079221;28;20055;-79
2022/06/03 07:06:47;;;;;;;9.35;4.28;;;665.90;2201.60;;;;;;5079071;28;20370;-78
2022/06/03 07:09:50;;;;;;;11.20;4.05;;;666.00;2099.20;;;;;;5091277;28;20043;-79
2022/06/03 07:12:28;;;;;;;8.32;3.70;;;666.20;1996.80;;;;;;5091349;28;20024;-79
2022/06/03 07:15:15;;;;;;;8.15;3.60;;;666.20;1971.20;;;;;;5092646;28;20098;-80
2022/06/03 07:21:11;;;;;;;10.32;3.67;;;666.40;1945.60;;;;;;5092767;28;20032;-78
2022/06/03 07:23:37;;;;;;;6.28;3.70;;;666.30;1996.80;;;;;;5091611;28;20077;-80
2022/06/03 07:26:16;;;;;;;7.63;3.95;;;666.30;2022.40;;;;;;5091052;28;20107;-80
2022/06/03 07:29:04;;;;;;;11.18;3.85;;;666.20;2048.00;;;;;;5091072;28;20144;-76
2022/06/03 07:32:02;;;;;;;11.75;4.55;;;666.20;2073.60;;;;;;5106683;28;20039;-77
2022/06/03 07:34:37;;;;;;;8.27;3.88;;;666.30;2073.60;;;;;;5092364;28;20048;-78
2022/06/03 07:37:10;;;;;;;15.33;4.20;;;666.50;1996.80;;;;;;5090718;28;20115;-77
2022/06/03 07:39:38;;;;;;;14.55;4.63;;;691.30;1971.20;;;;;;5091238;28;20024;-77
2022/06/03 07:42:20;;;;;;;16.77;4.35;;;691.40;1868.80;;;;;;5090759;28;20367;-78
2022/06/03 07:45:26;;;;;;;17.13;4.10;;;691.70;1843.20;;;;;;5090869;28;20438;-76
2022/06/03 07:47:54;;;;;;;17.60;5.03;;;691.90;1996.80;;;;;;5033437;28;20025;-79
2022/06/03 07:50:21;;;;;;;9.55;3.70;;;692.10;1843.20;;;;;;5049976;28;20053;-78
2022/06/03 07:53:05;;;;;;;9.57;3.38;;;692.10;1843.20;;;;;;5033540;28;20040;-79
2022/06/03 07:55:31;;;;;;;8.75;3.20;;;716.90;1817.60;;;;;;5033479;28;20124;-78
2022/06/03 07:58:08;;;;;;;17.63;3.72;;;717.00;1766.40;;;;;;5033203;28;20045;-78
2022/06/03 08:00:38;;;;;;;6.82;3.15;;;717.10;1817.60;;;;;;5033191;28;20033;-80
2022/06/03 08:03:18;;;;;;;8.55;3.85;;;717.00;1766.40;;;;;;5033398;28;20033;-81
2022/06/03 08:05:46;;;;;;;8.15;3.20;;;717.10;1817.60;;;;;;5049874;28;20123;-78
2022/06/03 08:11:16;;;;;;;7.22;3.22;;;717.10;1843.20;;;;;;5050443;28;20033;-79
2022/06/03 08:13:42;;;;;;;6.15;3.03;;;717.10;1792.00;;;;;;5033308;28;20128;-79
2022/06/03 08:16:22;;;;;;;5.93;2.80;;;717.20;1817.60;;;;;;5050363;28;20112;-77
2022/06/03 08:18:49;;;;;;;5.35;2.97;;;717.20;1766.40;;;;;;5050017;28;20492;-78
2022/06/03 08:21:36;;;;;;;5.32;3.08;;;717.30;1715.20;;;;;;5049413;28;20027;-78
2022/06/03 08:24:04;;;;;;;6.00;3.00;;;717.50;1792.00;;;;;;5065527;28;20047;-78
2022/06/03 08:26:31;;;;;;;5.15;2.97;;;717.50;1689.60;;;;;;5094424;28;20028;-78
2022/06/03 08:29:05;;;;;;;7.15;3.10;;;717.50;1689.60;;;;;;5095611;28;20119;-78
2022/06/03 08:31:32;;;;;;;5.80;3.00;;;717.60;1689.60;;;;;;5080237;28;20094;-78
2022/06/03 08:33:59;;;;;;;8.23;3.33;;;717.60;1664.00;;;;;;5096004;28;20519;-78
2022/06/03 08:36:32;;;;;;;7.38;3.25;;;717.70;1664.00;;;;;;5094516;28;20035;-78
2022/06/03 08:39:17;;;;;;;6.03;2.95;;;742.40;1689.60;;;;;;5095669;28;20031;-83
2022/06/03 08:41:52;;;;;;;4.43;2.60;;;742.40;1638.40;;;;;;5095579;28;20035;-77
2022/06/03 08:44:41;;;;;;;6.70;3.57;;;742.40;1689.60;;;;;;5094999;28;20086;-76
2022/06/03 08:47:42;;;;;;;4.82;3.15;;;742.50;1561.60;;;;;;5095667;28;20009;-80
2022/06/03 08:50:13;;;;;;;4.25;2.88;;;742.50;1561.60;;;;;;5095319;28;20103;-77
2022/06/03 08:53:00;;;;;;;7.60;2.83;;;742.60;1638.40;;;;;;5094268;28;20020;-79
2022/06/03 08:55:51;;;;;;;4.32;2.60;;;742.60;1561.60;;;;;;5094145;28;20546;-77
2022/06/03 08:58:40;;;;;;;4.05;2.33;;;742.70;1587.20;;;;;;5095251;28;20406;-77
2022/06/03 09:01:42;;;;;;;6.20;2.70;;;742.80;1612.80;;;;;;5093836;28;20028;-76
2022/06/03 09:04:18;;;;;;;6.82;2.72;;;742.80;1484.80;;;;;;5083934;28;20039;-77
2022/06/03 09:07:03;;;;;;;6.68;3.08;;;742.90;1510.40;;;;;;5084579;28;20019;-76
2022/06/03 09:09:51;;;;;;;6.05;2.55;;;742.90;1484.80;;;;;;5089266;28;20032;-77
2022/06/03 09:12:29;;;;;;;4.18;2.45;;;743.00;1459.20;;;;;;5085329;28;20545;-76
2022/06/03 09:15:10;;;;;;;3.72;2.63;;;743.10;1510.40;;;;;;5083138;28;20103;-88
2022/06/03 09:17:44;;;;;;;3.25;2.30;;;743.20;1484.80;;;;;;5083704;28;20482;-82
2022/06/03 09:20:15;;;;;;;5.65;2.58;;;743.30;1536.00;;;;;;5085664;28;20027;-81
2022/06/03 09:22:42;;;;;;;8.13;2.80;;;768.30;1459.20;;;;;;5082298;28;20020;-88
2022/06/03 09:25:11;;;;;;;4.07;2.97;;;768.50;1484.80;;;;;;5084643;28;20077;-82
2022/06/03 09:27:38;;;;;;;3.88;2.83;;;768.30;1459.20;;;;;;5083824;28;20085;-87
2022/06/03 09:30:06;;;;;;;6.80;2.45;;;768.40;1408.00;;;;;;5086554;28;20889;-79
2022/06/03 09:32:41;;;;;;;5.32;2.78;;;768.50;1408.00;;;;;;5085343;28;20458;-79
2022/06/03 09:35:13;;;;;;;4.10;2.57;;;768.60;1408.00;;;;;;5093714;28;20032;-80
2022/06/03 09:37:44;;;;;;;8.30;3.40;;;768.70;1382.40;;;;;;5095490;28;20085;-82
2022/06/03 09:40:28;;;;;;;4.63;2.75;;;768.90;1408.00;;;;;;5094995;28;20016;-83
2022/06/03 09:43:20;;;;;;;3.83;2.40;;;768.90;1356.80;;;;;;5084154;28;20130;-84
2022/06/03 09:45:50;;;;;;;6.30;2.42;;;793.70;1408.00;;;;;;5090382;28;20039;-83
2022/06/03 09:48:20;;;;;;;4.85;2.88;;;793.80;1356.80;;;;;;5115085;28;20020;-86
2022/06/03 09:50:48;;;;;;;4.40;2.38;;;793.90;1356.80;;;;;;5099684;28;20020;-80
2022/06/03 09:53:18;;;;;;;4.95;2.80;;;794.10;1356.80;;;;;;5094105;28;20020;-83
2022/06/03 09:55:51;;;;;;;3.85;2.38;;;794.20;1331.20;;;;;;5095035;28;20104;-84
2022/06/03 09:58:23;;;;;;;4.28;2.55;;;794.40;1356.80;;;;;;5094741;28;20031;-79
2022/06/03 10:00:53;;;;;;;5.40;2.95;;;794.50;1331.20;;;;;;5093272;28;20040;-80
2022/06/03 10:03:20;;;;;;;5.40;2.60;;;819.20;1305.60;;;;;;5093167;28;20039;-85
2022/06/03 10:05:48;;;;;;;5.30;3.38;;;819.30;1331.20;;;;;;5094266;28;20026;-79
2022/06/03 10:08:18;;;;;;;9.95;3.20;;;819.20;1305.60;;;;;;5092662;28;20024;-79
2022/06/03 10:13:31;;;;;;;3.83;2.80;;;819.30;1331.20;;;;;;5093748;28;20081;-79
2022/06/03 10:16:00;;;;;;;7.57;2.80;;;819.50;1280.00;;;;;;5093897;28;20082;-79
2022/06/03 10:18:49;;;;;;;4.40;2.35;;;819.50;1331.20;;;;;;5092973;28;20024;-85
2022/06/03 10:21:14;;;;;;;3.45;2.40;;;819.70;1305.60;;;;;;5094400;28;20024;-83
2022/06/03 10:23:52;;;;;;;5.85;2.75;;;819.80;1228.80;;;;;;5094308;28;20458;-85
2022/06/03 10:26:52;;;;;;;4.68;2.38;;;820.00;1254.40;;;;;;5094055;28;20020;-78
2022/06/03 10:29:25;;;;;;;7.72;2.60;;;820.10;1280.00;;;;;;5093177;28;20032;-78
2022/06/03 10:31:59;;;;;;;4.95;2.50;;;820.10;1228.80;;;;;;5089755;28;20028;-81
2022/06/03 10:34:27;;;;;;;5.72;2.70;;;820.10;1254.40;;;;;;5083460;28;20047;-80
2022/06/03 10:36:56;;;;;;;5.40;2.38;;;844.80;1254.40;;;;;;5084083;28;20047;-80
2022/06/03 10:39:27;;;;;;;7.45;2.78;;;844.90;1280.00;;;;;;5087366;28;20023;-78
2022/06/03 10:41:57;;;;;;;4.38;2.63;;;845.10;1280.00;;;;;;5099173;28;20028;-81
2022/06/03 10:44:28;;;;;;;4.90;2.17;;;844.90;1228.80;;;;;;5080426;28;20119;-82
2022/06/03 10:47:04;;;;;;;4.40;2.33;;;845.00;1254.40;;;;;;5100706;28;20056;-80
2022/06/03 10:49:33;;;;;;;7.85;2.53;;;845.00;1228.80;;;;;;5112672;28;20030;-81
2022/06/03 11:03:07;;;;;;;3.75;2.50;;;845.20;1177.60;;;;;;5097060;28;20174;-78
2022/06/03 11:05:36;;;;;;;3.95;2.25;;;845.30;1152.00;;;;;;5084721;28;20024;-78
2022/06/03 11:08:10;;;;;;;14.52;3.00;;;845.40;1126.40;;;;;;5101119;28;20032;-85
2022/06/03 11:10:53;;;;;;;3.40;2.20;;;845.40;1203.20;;;;;;5088058;28;20094;-83
2022/06/03 11:13:32;;;;;;;6.05;2.85;;;845.70;1177.60;;;;;;5082215;28;20180;-79
2022/06/03 11:16:19;;;;;;;5.32;2.50;;;845.70;1203.20;;;;;;5084455;28;20032;-80
2022/06/03 11:18:45;;;;;;;4.82;2.20;;;845.70;1177.60;;;;;;5084158;28;20016;-80
2022/06/03 11:21:29;;;;;;;3.00;2.28;;;845.50;1177.60;;;;;;5082878;28;20028;-80
2022/06/03 11:24:00;;;;;;;10.27;2.72;;;845.40;1177.60;;;;;;5083405;28;20028;-77
2022/06/03 11:26:35;;;;;;;5.00;2.03;;;845.70;1177.60;;;;;;5089003;28;20073;-79
2022/06/03 11:29:26;;;;;;;5.35;2.15;;;845.70;1126.40;;;;;;5078965;28;20072;-79
2022/06/03 11:31:54;;;;;;;6.00;2.60;;;870.40;1152.00;;;;;;5106623;28;20387;-81
2022/06/03 11:34:39;;;;;;;4.45;2.17;;;845.70;1152.00;;;;;;5092699;28;20020;-78
2022/06/03 11:37:14;;;;;;;4.38;2.40;;;870.50;1126.40;;;;;;5087075;28;20054;-79
2022/06/03 11:40:01;;;;;;;4.57;2.30;;;870.70;1126.40;;;;;;5081963;28;20442;-77
2022/06/03 11:42:43;;;;;;;7.53;2.65;;;870.80;1075.20;;;;;;5083254;28;20032;-80
2022/06/03 11:45:21;;;;;;;5.70;2.15;;;870.90;1100.80;;;;;;5081663;28;20157;-79
2022/06/03 11:48:00;;;;;;;12.57;2.47;;;870.90;1075.20;;;;;;5083214;28;20115;-79
2022/06/03 11:50:28;;;;;;;3.70;2.10;;;870.80;1100.80;;;;;;5082986;28;20023;-77
2022/06/03 11:52:56;;;;;;;4.00;1.90;;;870.90;1075.20;;;;;;5089528;28;20028;-80
2022/06/03 11:55:25;;;;;;;2.08;1.77;;;870.90;1075.20;;;;;;5100568;28;20016;-79
2022/06/03 11:58:01;;;;;;;3.13;1.80;;;870.70;1049.60;;;;;;5106665;28;20028;-78
2022/06/03 12:00:33;;;;;;;2.70;1.80;;;870.70;1075.20;;;;;;5107053;28;20038;-79
2022/06/03 12:03:07;;;;;;;6.35;2.22;;;870.80;1075.20;;;;;;5095523;28;20504;-79
2022/06/03 12:05:45;;;;;;;8.70;2.00;;;870.80;1049.60;;;;;;5092260;28;20024;-78
2022/06/03 12:08:41;;;;;;;3.78;1.95;;;870.80;1024.00;;;;;;5091550;28;20037;-80
2022/06/03 12:14:27;;;;;;;3.63;2.05;;;870.90;1024.00;;;;;;5092466;28;20077;-81
2022/06/03 12:17:07;;;;;;;3.20;1.90;;;870.80;998.40;;;;;;5090759;28;20501;-80
2022/06/03 12:19:42;;;;;;;4.93;2.30;;;870.70;1024.00;;;;;;5089273;28;20079;-80
2022/06/03 12:22:29;;;;;;;3.78;1.80;;;870.90;1049.60;;;;;;5082568;28;20051;-80
2022/06/03 12:25:22;;;;;;;5.50;1.88;;;870.90;1024.00;;;;;;5092434;28;20076;-81
2022/06/03 12:27:51;;;;;;;3.28;1.98;;;870.90;972.80;;;;;;5109918;28;20015;-79
2022/06/03 12:30:41;;;;;;;3.75;2.22;;;870.90;998.40;;;;;;5098074;28;20045;-79
2022/06/03 12:33:20;;;;;;;2.88;1.90;;;871.00;972.80;;;;;;5085674;28;20451;-78
2022/06/03 12:35:52;;;;;;;4.10;1.80;;;871.10;972.80;;;;;;5090372;28;20026;-77
2022/06/03 12:38:21;;;;;;;5.45;1.88;;;870.90;998.40;;;;;;5079680;28;20066;-79
2022/06/03 12:40:55;;;;;;;3.95;1.70;;;870.70;972.80;;;;;;5089155;28;20020;-79
2022/06/03 12:43:51;;;;;;;2.80;1.80;;;870.70;947.20;;;;;;5081531;28;20029;-78
2022/06/03 12:46:36;;;;;;;;;;;870.90;972.80;;;;;;5086219;28;20477;-80
2022/06/03 12:49:04;;;;;;;3.83;2.10;;;871.00;998.40;;;;;;5079093;28;19904;-79
2022/06/03 12:51:33;;;;;;;3.38;1.90;;;871.00;972.80;;;;;;5082170;28;20026;-79
2022/06/03 12:54:15;;;;;;;4.35;2.13;;;871.00;998.40;;;;;;5078852;28;20032;-77
2022/06/03 12:57:02;;;;;;;3.35;2.35;;;871.10;1024.00;;;;;;5079070;28;20027;-76
2022/06/03 13:00:14;;;;;;;4.18;1.92;;;871.00;972.80;;;;;;5080770;28;20020;-77
2022/06/03 13:03:00;;;;;;;9.02;2.33;;;871.00;972.80;;;;;;5006833;28;20148;-80
2022/06/03 13:05:26;;;;;;;;;;;870.90;1024.00;;;;;;5020503;28;20026;-80
2022/06/03 13:07:59;;;;;;;5.07;1.95;;;871.10;998.40;;;;;;5019920;28;19951;-78
2022/06/03 13:10:28;;;;;;;4.00;1.60;;;871.10;998.40;;;;;;5008744;28;20064;-80
2022/06/03 13:12:58;;;;;;;3.45;2.00;;;871.10;972.80;;;;;;5008160;28;20129;-78
2022/06/03 13:15:27;;;;;;;4.53;1.80;;;870.90;947.20;;;;;;5007647;28;20112;-79
2022/06/03 13:20:44;;;;;;;2.80;1.67;;;870.90;972.80;;;;;;5021859;28;20030;-80
2022/06/03 13:23:19;;;;;;;4.15;2.17;;;870.80;998.40;;;;;;5021175;28;20128;-79
2022/06/03 13:25:47;;;;;;;6.20;1.80;;;870.70;972.80;;;;;;5014962;28;20152;-80
2022/06/03 13:28:18;;;;;;;3.15;1.92;;;870.90;947.20;;;;;;5005563;28;20038;-80
2022/06/03 13:31:21;;;;;;;7.95;1.85;;;870.90;972.80;;;;;;5030185;28;20077;-80
2022/06/03 13:34:05;;;;;;;3.22;1.88;;;870.90;998.40;;;;;;5025370;28;20176;-79
2022/06/03 13:36:44;;;;;;;4.10;2.10;;;871.00;972.80;;;;;;5024482;28;20026;-79
2022/06/03 13:39:13;;;;;;;3.92;1.95;;;870.90;947.20;;;;;;5051671;28;20028;-79
2022/06/03 13:44:41;;;;;;;3.17;2.00;;;871.10;947.20;;;;;;5085418;28;20039;-80
2022/06/03 13:47:12;;;;;;;5.63;1.80;;;871.00;972.80;;;;;;5083524;28;20504;-80
2022/06/03 13:49:50;;;;;;;4.43;1.77;;;871.00;998.40;;;;;;5082649;28;20097;-78
2022/06/03 13:52:24;;;;;;;8.00;1.70;;;870.90;998.40;;;;;;5084675;28;20023;-78
2022/06/03 13:54:54;;;;;;;3.53;1.95;;;870.90;998.40;;;;;;5082616;28;20107;-79